createdAt,value
2018-07-12T00:00:40.660Z,485.87
2018-07-12T00:03:06.946Z,487.93
2018-07-12T00:05:33.258Z,485.77
2018-07-12T00:07:59.748Z,488.20
2018-07-12T00:10:26.170Z,485.47
2018-07-12T00:12:52.457Z,489.10
2018-07-12T00:15:18.734Z,490.70
2018-07-12T00:17:45.015Z,485.87
2018-07-12T00:20:11.454Z,489.50
2018-07-12T00:22:37.750Z,484.87
2018-07-12T00:25:04.039Z,487.33
2018-07-12T00:27:30.318Z,483.67
2018-07-12T00:29:56.600Z,484.47
2018-07-12T00:32:23.264Z,489.43
2018-07-12T00:34:49.549Z,486.20
2018-07-12T00:37:15.862Z,484.93
2018-07-12T00:39:42.153Z,485.83
2018-07-12T00:42:08.488Z,489.13
2018-07-12T00:44:34.756Z,483.97
2018-07-12T00:47:01.050Z,483.87
2018-07-12T00:49:27.322Z,483.73
2018-07-12T00:51:53.925Z,488.47
2018-07-12T00:54:20.198Z,484.90
2018-07-12T00:56:46.481Z,482.47
2018-07-12T00:59:12.774Z,484.60
2018-07-12T01:01:39.382Z,485.87
2018-07-12T01:04:05.667Z,486.33
2018-07-12T01:06:32.006Z,489.80
2018-07-12T01:08:58.292Z,484.93
2018-07-12T01:11:24.565Z,485.67
2018-07-12T01:13:50.965Z,486.60
2018-07-12T01:16:17.272Z,485.23
2018-07-12T01:18:43.561Z,482.73
2018-07-12T01:21:09.843Z,486.07
2018-07-12T01:23:36.128Z,486.97
2018-07-12T01:26:02.807Z,488.63
2018-07-12T01:28:29.092Z,483.73
2018-07-12T01:30:55.375Z,485.80
2018-07-12T01:33:21.677Z,487.50
2018-07-12T01:35:47.935Z,484.77
2018-07-12T01:38:14.193Z,483.10
2018-07-12T01:40:40.452Z,488.10
2018-07-12T01:43:06.731Z,487.37
2018-07-12T01:45:32.988Z,486.97
2018-07-12T01:47:59.245Z,484.10
2018-07-12T01:50:25.508Z,485.90
2018-07-12T01:52:51.760Z,485.33
2018-07-12T01:55:18.029Z,488.07
2018-07-12T01:57:44.286Z,483.40
2018-07-12T02:00:10.548Z,482.47
2018-07-12T02:02:36.808Z,483.03
2018-07-12T02:05:03.174Z,488.10
2018-07-12T02:07:29.539Z,486.57
2018-07-12T02:09:55.809Z,487.67
2018-07-12T02:12:22.396Z,484.47
2018-07-12T02:14:48.660Z,483.63
2018-07-12T02:17:14.917Z,486.30
2018-07-12T02:19:41.183Z,483.90
2018-07-12T02:22:07.441Z,482.70
2018-07-12T02:24:33.709Z,484.97
2018-07-12T02:26:59.964Z,482.93
2018-07-12T02:29:26.704Z,486.63
2018-07-12T02:31:52.965Z,484.27
2018-07-12T02:34:19.247Z,485.53
2018-07-12T02:36:45.505Z,485.27
2018-07-12T02:39:11.764Z,484.47
2018-07-12T02:41:38.143Z,485.57
2018-07-12T02:44:04.418Z,484.90
2018-07-12T02:46:30.696Z,480.17
2018-07-12T02:48:56.970Z,486.10
2018-07-12T02:51:23.297Z,485.87
2018-07-12T02:53:49.557Z,484.37
2018-07-12T02:56:15.821Z,484.03
2018-07-12T02:58:42.082Z,488.57
2018-07-12T03:01:08.362Z,483.43
2018-07-12T03:03:34.623Z,484.47
2018-07-12T03:06:02.723Z,485.53
2018-07-12T03:08:29.113Z,487.57
2018-07-12T03:10:55.381Z,486.60
2018-07-12T03:13:21.650Z,482.83
2018-07-12T03:15:49.637Z,485.87
2018-07-12T03:18:15.920Z,484.17
2018-07-12T03:20:42.191Z,483.13
2018-07-12T03:23:08.462Z,488.47
2018-07-12T03:25:34.734Z,484.27
2018-07-12T03:28:04.384Z,485.23
2018-07-12T03:30:30.653Z,487.77
2018-07-12T03:32:56.926Z,483.77
2018-07-12T03:35:23.193Z,485.70
2018-07-12T03:37:49.460Z,483.17
2018-07-12T03:40:15.720Z,484.50
2018-07-12T03:42:41.985Z,483.87
2018-07-12T03:45:08.247Z,484.57
2018-07-12T03:47:34.509Z,488.27
2018-07-12T03:50:00.769Z,484.87
2018-07-12T03:52:27.029Z,488.50
2018-07-12T03:54:53.417Z,484.63
2018-07-12T03:57:19.765Z,484.40
2018-07-12T03:59:46.049Z,487.97
2018-07-12T04:02:12.322Z,486.90
2018-07-12T04:04:38.588Z,483.27
2018-07-12T04:07:04.860Z,484.70
2018-07-12T04:09:31.121Z,485.53
2018-07-12T04:11:57.388Z,484.50
2018-07-12T04:14:23.658Z,484.67
2018-07-12T04:16:49.925Z,481.97
2018-07-12T04:19:16.189Z,482.33
2018-07-12T04:21:42.453Z,486.87
2018-07-12T04:24:08.721Z,483.57
2018-07-12T04:26:35.107Z,493.13
2018-07-12T04:29:01.382Z,487.07
2018-07-12T04:31:27.650Z,486.13
2018-07-12T04:33:53.957Z,482.10
2018-07-12T04:36:20.333Z,485.47
2018-07-12T04:38:46.607Z,486.07
2018-07-12T04:41:12.881Z,486.00
2018-07-12T04:43:39.151Z,489.27
2018-07-12T04:46:05.449Z,483.43
2018-07-12T04:48:31.737Z,484.30
2018-07-12T04:50:57.996Z,484.67
2018-07-12T04:53:24.277Z,483.87
2018-07-12T04:55:50.552Z,485.77
2018-07-12T04:58:16.965Z,489.17
2018-07-12T05:00:43.183Z,485.13
2018-07-12T05:03:09.426Z,489.77
2018-07-12T05:05:35.685Z,489.87
2018-07-12T05:08:02.166Z,488.07
2018-07-12T05:10:28.422Z,488.27
2018-07-12T05:12:54.694Z,489.30
2018-07-12T05:15:20.957Z,486.60
2018-07-12T05:17:47.232Z,489.13
2018-07-12T05:20:13.510Z,491.10
2018-07-12T05:22:39.898Z,487.53
2018-07-12T05:25:06.169Z,487.43
2018-07-12T05:27:32.440Z,486.63
2018-07-12T05:29:58.715Z,490.93
2018-07-12T05:32:24.992Z,487.37
2018-07-12T05:34:51.274Z,494.60
2018-07-12T05:37:18.473Z,490.13
2018-07-12T05:39:45.673Z,491.10
2018-07-12T05:42:12.874Z,495.10
2018-07-12T05:44:40.106Z,493.90
2018-07-12T05:47:07.310Z,488.03
2018-07-12T05:49:34.512Z,489.07
2018-07-12T05:52:01.722Z,490.07
2018-07-12T05:54:28.936Z,490.17
2018-07-12T05:56:56.144Z,493.47
2018-07-12T05:59:23.349Z,490.53
2018-07-12T06:02:02.214Z,491.40
2018-07-12T06:04:29.447Z,495.40
2018-07-12T06:06:56.652Z,493.97
2018-07-12T06:09:23.854Z,489.87
2018-07-12T06:11:51.153Z,485.47
2018-07-12T06:14:18.537Z,489.93
2018-07-12T06:16:45.776Z,491.13
2018-07-12T06:19:12.970Z,490.93
2018-07-12T06:21:40.175Z,495.00
2018-07-12T06:24:07.393Z,494.70
2018-07-12T06:26:34.585Z,489.03
2018-07-12T06:29:01.808Z,493.27
2018-07-12T06:31:29.017Z,489.77
2018-07-12T06:33:56.211Z,491.00
2018-07-12T06:36:23.410Z,490.33
2018-07-12T06:38:50.607Z,495.17
2018-07-12T06:41:17.805Z,493.13
2018-07-12T06:43:45.090Z,496.00
2018-07-12T06:46:12.287Z,487.77
2018-07-12T06:48:39.509Z,493.03
2018-07-12T06:51:06.730Z,490.33
2018-07-12T06:53:33.997Z,492.57
2018-07-12T06:56:01.183Z,489.57
2018-07-12T06:58:28.358Z,503.10
2018-07-12T07:00:55.561Z,492.73
2018-07-12T07:03:22.756Z,499.50
2018-07-12T07:05:49.934Z,492.17
2018-07-12T07:08:17.141Z,493.87
2018-07-12T07:10:44.327Z,490.07
2018-07-12T07:13:11.529Z,493.97
2018-07-12T07:15:38.696Z,492.83
2018-07-12T07:18:05.867Z,489.17
2018-07-12T07:20:33.070Z,492.37
2018-07-12T07:23:00.239Z,492.90
2018-07-12T07:25:27.402Z,494.77
2018-07-12T07:27:54.593Z,488.83
2018-07-12T07:30:21.779Z,494.87
2018-07-12T07:32:49.049Z,492.87
2018-07-12T07:35:16.254Z,495.63
2018-07-12T07:37:43.434Z,493.97
2018-07-12T07:40:10.630Z,488.30
2018-07-12T07:42:37.796Z,491.17
2018-07-12T07:45:05.371Z,495.63
2018-07-12T07:47:32.545Z,495.57
2018-07-12T07:49:59.708Z,497.20
2018-07-12T07:52:26.881Z,495.10
2018-07-12T07:54:54.053Z,493.07
2018-07-12T07:57:21.238Z,494.70
2018-07-12T07:59:48.397Z,498.60
2018-07-12T08:02:15.577Z,496.70
2018-07-12T08:04:42.748Z,498.37
2018-07-12T08:07:09.929Z,498.47
2018-07-12T08:09:37.156Z,496.83
2018-07-12T08:12:04.281Z,500.47
2018-07-12T08:14:31.458Z,502.67
2018-07-12T08:16:58.646Z,506.37
2018-07-12T08:19:25.815Z,509.10
2018-07-12T08:22:01.970Z,519.13
2018-07-12T08:24:29.141Z,522.87
2018-07-12T08:26:56.332Z,532.07
2018-07-12T08:29:23.525Z,542.33
2018-07-12T08:31:50.703Z,551.53
2018-07-12T08:34:17.869Z,555.70
2018-07-12T08:36:45.044Z,566.63
2018-07-12T08:39:12.202Z,576.27
2018-07-12T08:41:39.403Z,578.80
2018-07-12T08:44:06.589Z,570.57
2018-07-12T08:46:33.765Z,567.33
2018-07-12T08:49:00.962Z,563.83
2018-07-12T08:51:28.143Z,574.23
2018-07-12T08:53:55.329Z,559.57
2018-07-12T08:56:22.559Z,555.83
2018-07-12T08:58:49.776Z,555.23
2018-07-12T09:01:16.969Z,550.07
2018-07-12T09:03:44.181Z,547.57
2018-07-12T09:06:11.387Z,548.90
2018-07-12T09:08:38.584Z,564.27
2018-07-12T09:11:06.096Z,569.80
2018-07-12T09:13:33.292Z,573.80
2018-07-12T09:16:00.494Z,581.87
2018-07-12T09:18:27.721Z,583.57
2018-07-12T09:20:54.909Z,578.70
2018-07-12T09:23:22.106Z,632.27
2018-07-12T09:25:49.304Z,612.23
2018-07-12T09:28:16.498Z,653.70
2018-07-12T09:30:43.755Z,692.07
2018-07-12T09:33:10.925Z,656.70
2018-07-12T09:35:38.133Z,656.93
2018-07-12T09:38:30.576Z,618.60
2018-07-12T09:40:57.793Z,608.43
2018-07-12T09:43:25.000Z,632.17
2018-07-12T09:45:52.205Z,610.87
2018-07-12T09:48:19.398Z,609.80
2018-07-12T09:50:46.592Z,599.03
2018-07-12T09:53:13.805Z,595.10
2018-07-12T09:55:41.086Z,607.80
2018-07-12T09:58:19.645Z,584.30
2018-07-12T10:00:52.728Z,581.67
2018-07-12T10:03:20.617Z,576.77
2018-07-12T10:05:53.656Z,576.10
2018-07-12T10:08:26.710Z,576.27
2018-07-12T10:10:59.695Z,576.83
2018-07-12T10:13:31.477Z,566.73
2018-07-12T10:16:08.216Z,565.67
2018-07-12T10:18:35.456Z,562.50
2018-07-12T10:21:02.681Z,564.80
2018-07-12T10:23:29.877Z,564.60
2018-07-12T10:25:57.444Z,563.53
2018-07-12T10:28:24.647Z,573.03
2018-07-12T10:30:51.848Z,611.17
2018-07-12T10:33:19.150Z,643.87
2018-07-12T10:35:47.242Z,668.07
2018-07-12T10:38:14.460Z,664.33
2018-07-12T10:40:42.078Z,675.13
2018-07-12T10:43:09.273Z,615.33
2018-07-12T10:45:36.507Z,623.53
2018-07-12T10:48:03.767Z,617.43
2018-07-12T10:50:30.977Z,594.83
2018-07-12T10:52:58.145Z,577.53
2018-07-12T10:55:25.417Z,572.90
2018-07-12T10:57:52.624Z,571.97
2018-07-12T11:00:19.813Z,573.63
2018-07-12T11:02:47.028Z,611.50
2018-07-12T11:05:14.245Z,616.03
2018-07-12T11:07:41.413Z,665.03
2018-07-12T11:10:08.600Z,661.73
2018-07-12T11:12:35.764Z,687.07
2018-07-12T11:15:02.983Z,677.23
2018-07-12T11:17:30.159Z,710.27
2018-07-12T11:19:57.490Z,658.73
2018-07-12T11:22:24.672Z,657.77
2018-07-12T11:24:51.879Z,583.67
2018-07-12T11:27:19.054Z,579.13
2018-07-12T11:29:58.462Z,569.23
2018-07-12T11:32:25.665Z,589.70
2018-07-12T11:34:52.837Z,591.57
2018-07-12T11:37:22.783Z,674.60
2018-07-12T11:39:50.138Z,728.63
2018-07-12T11:42:17.304Z,758.97
2018-07-12T11:44:44.481Z,745.17
2018-07-12T11:47:11.833Z,779.23
2018-07-12T11:49:39.012Z,772.60
2018-07-12T11:52:06.466Z,785.07
2018-07-12T11:54:33.641Z,765.80
2018-07-12T11:57:00.854Z,783.40
2018-07-12T11:59:28.073Z,762.90
2018-07-12T12:01:55.380Z,764.90
2018-07-12T12:04:22.457Z,763.60
2018-07-12T12:06:49.694Z,740.80
2018-07-12T12:09:16.852Z,737.27
2018-07-12T12:11:44.093Z,729.27
2018-07-12T12:14:11.436Z,733.07
2018-07-12T12:16:38.641Z,719.20
2018-07-12T12:19:05.869Z,695.53
2018-07-12T12:21:33.081Z,657.80
2018-07-12T12:24:00.502Z,617.00
2018-07-12T12:26:27.701Z,581.57
2018-07-12T12:28:54.897Z,606.67
2018-07-12T12:31:22.111Z,582.00
2018-07-12T12:33:49.553Z,603.10
2018-07-12T12:36:16.773Z,585.03
2018-07-12T12:38:43.969Z,578.77
2018-07-12T12:41:11.187Z,588.10
2018-07-12T12:43:38.388Z,578.30
2018-07-12T12:46:05.594Z,575.73
2018-07-12T12:48:32.821Z,576.60
2018-07-12T12:51:00.143Z,574.23
2018-07-12T12:53:27.237Z,634.00
2018-07-12T12:55:54.444Z,646.17
2018-07-12T12:58:21.633Z,673.50
2018-07-12T13:00:48.865Z,687.53
2018-07-12T13:03:16.070Z,746.33
2018-07-12T13:05:43.307Z,752.17
2018-07-12T13:08:10.527Z,731.67
2018-07-12T13:10:37.753Z,753.67
2018-07-12T13:13:05.258Z,776.87
2018-07-12T13:15:32.448Z,777.30
2018-07-12T13:17:59.664Z,752.77
2018-07-12T13:20:26.878Z,714.50
2018-07-12T13:22:54.069Z,673.87
2018-07-12T13:25:21.286Z,667.50
2018-07-12T13:27:48.522Z,684.93
2018-07-12T13:30:15.665Z,681.10
2018-07-12T13:32:42.865Z,703.57
2018-07-12T13:35:10.056Z,676.33
2018-07-12T13:37:37.261Z,653.43
2018-07-12T13:40:04.526Z,637.40
2018-07-12T13:42:31.746Z,652.00
2018-07-12T13:44:58.949Z,650.23
2018-07-12T13:47:26.147Z,670.00
2018-07-12T13:49:53.348Z,681.30
2018-07-12T13:52:20.564Z,694.07
2018-07-12T13:54:47.755Z,735.47
2018-07-12T13:57:14.928Z,729.33
2018-07-12T13:59:42.105Z,774.67
2018-07-12T14:02:09.300Z,768.67
2018-07-12T14:04:36.477Z,762.60
2018-07-12T14:07:03.660Z,786.67
2018-07-12T14:09:30.839Z,807.90
2018-07-12T14:11:58.039Z,821.47
2018-07-12T14:14:25.215Z,839.53
2018-07-12T14:16:52.385Z,813.20
2018-07-12T14:19:19.566Z,856.80
2018-07-12T14:21:46.753Z,830.33
2018-07-12T14:24:13.924Z,833.03
2018-07-12T14:26:41.095Z,818.37
2018-07-12T14:29:08.289Z,825.80
2018-07-12T14:31:35.475Z,798.33
2018-07-12T14:34:02.694Z,773.27
2018-07-12T14:36:29.866Z,719.83
2018-07-12T14:38:57.076Z,667.70
2018-07-12T14:41:24.261Z,658.50
2018-07-12T14:43:51.461Z,602.60
2018-07-12T14:46:18.641Z,631.67
2018-07-12T14:48:45.812Z,592.83
2018-07-12T14:51:12.977Z,612.53
2018-07-12T14:53:40.173Z,589.50
2018-07-12T14:56:07.390Z,598.47
2018-07-12T14:58:34.607Z,578.47
2018-07-12T15:01:01.810Z,573.47
2018-07-12T15:03:29.019Z,571.43
2018-07-12T15:05:56.234Z,576.43
2018-07-12T15:08:23.434Z,564.33
2018-07-12T15:10:50.625Z,567.33
2018-07-12T15:13:17.853Z,573.03
2018-07-12T15:15:45.229Z,570.23
2018-07-12T15:18:12.465Z,575.30
2018-07-12T15:20:39.697Z,624.17
2018-07-12T15:23:06.982Z,598.57
2018-07-12T15:25:34.204Z,621.27
2018-07-12T15:28:01.550Z,630.90
2018-07-12T15:30:28.636Z,628.53
2018-07-12T15:32:55.825Z,619.50
2018-07-12T15:35:23.031Z,593.93
2018-07-12T15:37:50.235Z,584.97
2018-07-12T15:40:17.439Z,593.07
2018-07-12T15:42:44.641Z,576.70
2018-07-12T15:45:11.886Z,573.57
2018-07-12T15:47:39.265Z,576.30
2018-07-12T15:50:06.478Z,569.83
2018-07-12T15:52:33.719Z,573.03
2018-07-12T15:55:00.915Z,570.97
2018-07-12T15:57:28.091Z,569.20
2018-07-12T15:59:55.293Z,567.40
2018-07-12T16:02:22.457Z,571.90
2018-07-12T16:04:49.635Z,573.50
2018-07-12T16:07:16.801Z,578.80
2018-07-12T16:09:43.976Z,587.50
2018-07-12T16:12:11.153Z,616.27
2018-07-12T16:14:38.741Z,610.47
2018-07-12T16:17:06.346Z,639.63
2018-07-12T16:19:33.541Z,619.10
2018-07-12T16:22:00.710Z,637.63
2018-07-12T16:24:27.896Z,642.43
2018-07-12T16:26:55.077Z,615.67
2018-07-12T16:29:22.248Z,614.53
2018-07-12T16:31:49.429Z,641.37
2018-07-12T16:34:16.896Z,640.67
2018-07-12T16:36:44.069Z,607.87
2018-07-12T16:39:11.254Z,602.27
2018-07-12T16:41:38.506Z,608.30
2018-07-12T16:44:05.699Z,629.03
2018-07-12T16:46:32.891Z,630.80
2018-07-12T16:49:00.050Z,597.17
2018-07-12T16:51:27.238Z,578.47
2018-07-12T16:53:54.416Z,576.70
2018-07-12T16:56:21.640Z,574.07
2018-07-12T16:58:49.132Z,578.00
2018-07-12T17:01:16.329Z,575.20
2018-07-12T17:03:43.524Z,570.00
2018-07-12T17:06:10.783Z,580.73
2018-07-12T17:08:37.986Z,572.87
2018-07-12T17:11:05.190Z,578.30
2018-07-12T17:13:32.417Z,574.37
2018-07-12T17:15:59.765Z,572.07
2018-07-12T17:18:26.959Z,586.33
2018-07-12T17:20:54.158Z,607.27
2018-07-12T17:23:21.352Z,572.33
2018-07-12T17:25:48.552Z,573.40
2018-07-12T17:28:15.752Z,571.70
2018-07-12T17:30:42.956Z,573.53
2018-07-12T17:33:10.231Z,575.10
2018-07-12T17:35:37.372Z,563.63
2018-07-12T17:38:04.763Z,560.73
2018-07-12T17:40:31.966Z,565.43
2018-07-12T17:42:59.191Z,567.87
2018-07-12T17:45:26.415Z,555.43
2018-07-12T17:47:53.632Z,553.93
2018-07-12T17:50:21.626Z,552.50
2018-07-12T17:52:48.833Z,550.63
2018-07-12T17:55:16.123Z,549.53
2018-07-12T17:57:43.337Z,544.40
2018-07-12T18:00:10.573Z,544.77
2018-07-12T18:02:37.848Z,545.07
2018-07-12T18:05:05.550Z,549.87
2018-07-12T18:07:33.053Z,543.93
2018-07-12T18:10:00.266Z,542.63
2018-07-12T18:12:27.471Z,539.73
2018-07-12T18:14:54.677Z,544.07
2018-07-12T18:17:21.904Z,536.00
2018-07-12T18:19:49.207Z,539.20
2018-07-12T18:22:16.467Z,536.97
2018-07-12T18:24:43.668Z,535.63
2018-07-12T18:27:10.913Z,533.70
2018-07-12T18:29:38.109Z,538.70
2018-07-12T18:32:05.368Z,540.17
2018-07-12T18:34:32.589Z,534.70
2018-07-12T18:36:59.792Z,535.87
2018-07-12T18:39:27.000Z,533.00
2018-07-12T18:41:54.206Z,534.37
2018-07-12T18:44:21.466Z,533.90
2018-07-12T18:46:48.650Z,537.57
2018-07-12T18:49:15.857Z,530.50
2018-07-12T18:51:43.085Z,529.53
2018-07-12T18:54:10.352Z,530.90
2018-07-12T18:56:37.570Z,532.57
2018-07-12T18:59:04.786Z,528.70
2018-07-12T19:01:32.040Z,525.30
2018-07-12T19:03:59.249Z,530.07
2018-07-12T19:06:26.449Z,525.27
2018-07-12T19:08:53.796Z,526.20
2018-07-12T19:11:20.997Z,523.23
2018-07-12T19:13:48.286Z,527.80
2018-07-12T19:16:16.068Z,525.40
2018-07-12T19:18:43.283Z,522.67
2018-07-12T19:21:10.492Z,520.37
2018-07-12T19:23:37.802Z,519.83
2018-07-12T19:26:04.994Z,523.77
2018-07-12T19:28:32.423Z,521.87
2018-07-12T19:30:59.617Z,515.93
2018-07-12T19:33:26.849Z,517.40
2018-07-12T19:35:54.224Z,518.40
2018-07-12T19:38:21.477Z,516.97
2018-07-12T19:40:48.692Z,517.53
2018-07-12T19:43:15.995Z,513.87
2018-07-12T19:45:43.318Z,517.43
2018-07-12T19:48:10.578Z,514.67
2018-07-12T19:50:37.849Z,514.00
2018-07-12T19:53:05.040Z,513.77
2018-07-12T19:55:32.499Z,511.17
2018-07-12T19:57:59.828Z,511.87
2018-07-12T20:00:27.139Z,513.97
2018-07-12T20:02:54.351Z,519.17
2018-07-12T20:05:21.562Z,512.67
2018-07-12T20:07:48.783Z,508.87
2018-07-12T20:10:16.196Z,510.33
2018-07-12T20:12:43.448Z,511.30
2018-07-12T20:15:10.647Z,511.20
2018-07-12T20:17:38.221Z,511.40
2018-07-12T20:20:06.376Z,508.90
2018-07-12T20:22:33.569Z,508.17
2018-07-12T20:25:00.769Z,505.87
2018-07-12T20:27:28.181Z,507.40
2018-07-12T20:29:55.444Z,507.30
2018-07-12T20:32:22.690Z,504.37
2018-07-12T20:34:49.897Z,508.87
2018-07-12T20:37:17.124Z,504.50
2018-07-12T20:39:44.349Z,510.37
2018-07-12T20:42:11.748Z,507.90
2018-07-12T20:44:38.988Z,509.43
2018-07-12T20:47:06.328Z,504.57
2018-07-12T20:49:33.561Z,512.87
2018-07-12T20:52:00.881Z,504.93
2018-07-12T20:54:28.107Z,507.60
2018-07-12T20:56:55.538Z,509.57
2018-07-12T20:59:22.821Z,506.87
2018-07-12T21:01:50.031Z,503.77
2018-07-12T21:04:17.248Z,503.10
2018-07-12T21:06:44.565Z,501.73
2018-07-12T21:09:11.741Z,501.60
2018-07-12T21:11:38.958Z,506.90
2018-07-12T21:14:06.152Z,503.33
2018-07-12T21:16:33.321Z,504.57
2018-07-12T21:19:00.504Z,507.40
2018-07-12T21:21:27.716Z,501.70
2018-07-12T21:23:54.883Z,505.50
2018-07-12T21:26:22.099Z,499.73
2018-07-12T21:28:49.272Z,503.13
2018-07-12T21:31:16.476Z,500.67
2018-07-12T21:33:43.754Z,500.03
2018-07-12T21:36:11.286Z,501.87
2018-07-12T21:38:38.503Z,504.37
2018-07-12T21:41:05.913Z,506.97
2018-07-12T21:43:33.367Z,500.60
2018-07-12T21:46:00.574Z,502.07
2018-07-12T21:48:27.777Z,503.67
2018-07-12T21:50:55.000Z,498.20
2018-07-12T21:53:22.230Z,500.03
2018-07-12T21:55:49.450Z,502.30
2018-07-12T21:58:16.642Z,501.03
2018-07-12T22:00:43.876Z,499.13
2018-07-12T22:03:11.102Z,495.57
2018-07-12T22:05:38.290Z,498.63
2018-07-12T22:08:10.533Z,505.10
2018-07-12T22:10:37.729Z,498.50
2018-07-12T22:13:04.930Z,495.73
2018-07-12T22:15:32.305Z,495.67
2018-07-12T22:17:59.687Z,494.57
2018-07-12T22:20:26.881Z,500.33
2018-07-12T22:22:54.108Z,495.17
2018-07-12T22:25:21.306Z,496.80
2018-07-12T22:27:48.506Z,496.30
2018-07-12T22:30:15.709Z,499.40
2018-07-12T22:32:42.919Z,499.03
2018-07-12T22:35:10.129Z,496.67
2018-07-12T22:37:37.346Z,495.23
2018-07-12T22:40:04.544Z,499.20
2018-07-12T22:42:31.757Z,496.50
2018-07-12T22:44:58.955Z,503.20
2018-07-12T22:47:26.148Z,494.77
2018-07-12T22:49:53.357Z,497.57
2018-07-12T22:52:20.985Z,496.43
2018-07-12T22:54:48.750Z,497.80
2018-07-12T22:57:15.990Z,496.77
2018-07-12T22:59:43.216Z,494.07
2018-07-12T23:02:10.409Z,494.67
2018-07-12T23:04:37.617Z,494.20
2018-07-12T23:07:04.983Z,493.03
2018-07-12T23:09:32.176Z,490.80
2018-07-12T23:11:59.375Z,496.73
2018-07-12T23:14:26.586Z,491.67
2018-07-12T23:16:53.782Z,494.40
2018-07-12T23:19:20.984Z,493.83
2018-07-12T23:21:48.170Z,492.53
2018-07-12T23:24:15.371Z,495.27
2018-07-12T23:26:42.562Z,498.37
2018-07-12T23:29:09.775Z,496.00
2018-07-12T23:31:36.990Z,495.10
2018-07-12T23:34:04.237Z,495.37
2018-07-12T23:36:31.450Z,490.57
2018-07-12T23:38:58.690Z,494.10
2018-07-12T23:41:25.913Z,490.30
2018-07-12T23:43:53.117Z,494.33
2018-07-12T23:46:20.323Z,494.33
2018-07-12T23:48:47.522Z,492.73
2018-07-12T23:51:14.744Z,496.63
2018-07-12T23:53:41.945Z,492.87
2018-07-12T23:56:09.131Z,490.20
2018-07-12T23:58:36.300Z,491.10
